Weather at Cobb County-Mc Collum Field

Public forecast

Using degrees Fahrenheit for public forecast. Weather courtesy of forecast.io.

Current aviation weather report (METAR) for Cobb County-Mc Collum Field

Retrieved 2020/09/23 20:50 UTC (36 minutes ago):

KRYY 232050Z VRB03KT 10SM CLR 23/12 A3005 RMK AO2 SLP897 T02280117 56012

Aviation forecast (TAF) for Cobb County-Mc Collum Field

Retrieved 2020/09/23 18:27 UTC (3 hours ago):

TAF KRYY 231725Z 2318/2418 26005KT P6SM SCT045 BKN100 FM232300 VRB03KT P6SM FEW045 BKN100 FM240700 08005KT P6SM BKN080 FM241300 11007KT P6SM OVC050 PROB30 2415/2418 4SM -SHRA BR OVC025